createdAt,value
2022-11-24T00:02:08.078Z,100.00
2022-11-24T00:04:39.427Z,100.00
2022-11-24T00:07:14.782Z,100.00
2022-11-24T00:09:44.081Z,100.00
2022-11-24T00:12:15.911Z,100.00
2022-11-24T00:14:50.369Z,100.00
2022-11-24T00:17:19.618Z,100.00
2022-11-24T00:19:51.361Z,100.00
2022-11-24T00:22:20.883Z,100.00
2022-11-24T00:24:50.250Z,100.00
2022-11-24T00:27:19.701Z,100.00
2022-11-24T00:29:48.861Z,100.00
2022-11-24T00:32:18.297Z,100.00
2022-11-24T00:34:48.612Z,100.00
2022-11-24T00:39:55.043Z,100.00
2022-11-24T00:42:24.255Z,100.00
2022-11-24T00:44:58.711Z,100.00
2022-11-24T00:47:29.084Z,100.00
2022-11-24T00:49:58.353Z,100.00
2022-11-24T00:52:35.602Z,100.00
2022-11-24T00:55:10.557Z,100.00
2022-11-24T00:57:40.094Z,100.00
2022-11-24T01:00:11.511Z,100.00
2022-11-24T01:02:40.989Z,100.00
2022-11-24T01:05:11.334Z,100.00
2022-11-24T01:10:18.306Z,100.00
2022-11-24T01:12:47.492Z,100.00
2022-11-24T01:15:16.836Z,100.00
2022-11-24T01:17:46.139Z,100.00
2022-11-24T01:20:16.225Z,100.00
2022-11-24T01:22:50.327Z,100.00
2022-11-24T01:25:19.687Z,100.00
2022-11-24T01:27:48.939Z,100.00
2022-11-24T01:30:23.759Z,100.00
2022-11-24T01:32:53.158Z,100.00
2022-11-24T01:35:22.413Z,100.00
2022-11-24T01:37:54.246Z,100.00
2022-11-24T01:40:24.191Z,100.00
2022-11-24T01:42:54.669Z,100.00
2022-11-24T01:45:42.497Z,100.00
2022-11-24T01:48:18.211Z,100.00
2022-11-24T01:50:54.864Z,100.00
2022-11-24T01:53:27.389Z,100.00
2022-11-24T01:55:56.948Z,100.00
2022-11-24T01:58:32.406Z,100.00
2022-11-24T02:01:02.533Z,100.00
2022-11-24T02:03:40.126Z,100.00
2022-11-24T02:06:13.835Z,100.00
2022-11-24T02:08:52.118Z,100.00
2022-11-24T02:11:23.289Z,99.93
2022-11-24T02:13:55.325Z,100.00
2022-11-24T02:16:24.792Z,99.96
2022-11-24T02:18:54.645Z,100.00
2022-11-24T02:26:51.660Z,100.00
2022-11-24T02:29:21.507Z,100.00
2022-11-24T02:34:35.016Z,100.00
2022-11-24T02:37:09.289Z,100.00
2022-11-24T02:39:38.547Z,100.00
2022-11-24T02:44:55.407Z,100.00
2022-11-24T02:47:24.763Z,100.00
2022-11-24T02:49:59.388Z,100.00
2022-11-24T02:52:28.747Z,100.00
2022-11-24T02:54:57.849Z,100.00
2022-11-24T02:57:35.737Z,100.00
2022-11-24T03:00:05.236Z,100.00
2022-11-24T03:02:35.057Z,100.00
2022-11-24T03:05:11.712Z,100.00
2022-11-24T03:07:52.066Z,100.00
2022-11-24T03:10:21.354Z,100.00
2022-11-24T03:12:52.569Z,100.00
2022-11-24T03:15:27.734Z,100.00
2022-11-24T03:17:58.191Z,100.00
2022-11-24T03:20:27.870Z,100.00
2022-11-24T03:25:31.830Z,100.00
2022-11-24T03:28:03.370Z,100.00
2022-11-24T03:30:32.666Z,100.00
2022-11-24T03:33:01.864Z,100.00
2022-11-24T03:35:30.985Z,100.00
2022-11-24T03:38:00.268Z,100.00
2022-11-24T03:40:29.603Z,100.00
2022-11-24T03:42:58.863Z,100.00
2022-11-24T03:45:46.590Z,100.00
2022-11-24T03:48:16.823Z,100.00
2022-11-24T03:50:53.908Z,100.00
2022-11-24T03:53:23.346Z,100.00
2022-11-24T03:55:57.700Z,100.00
2022-11-24T03:58:27.319Z,100.00
2022-11-24T04:00:58.723Z,100.00
2022-11-24T04:03:28.479Z,100.00
2022-11-24T04:05:57.616Z,100.00
2022-11-24T04:11:01.898Z,100.00
2022-11-24T04:13:29.164Z,100.00
2022-11-24T04:16:05.307Z,100.00
2022-11-24T04:18:34.628Z,100.00
2022-11-24T04:21:03.728Z,100.00
2022-11-24T04:23:33.086Z,100.00
2022-11-24T04:26:02.279Z,100.00
2022-11-24T04:28:31.432Z,100.00
2022-11-24T04:31:06.558Z,100.00
2022-11-24T04:33:35.910Z,100.00
2022-11-24T04:36:05.133Z,100.00
2022-11-24T04:39:23.421Z,100.00
2022-11-24T04:41:28.644Z,100.00
2022-11-24T04:43:57.930Z,100.00
2022-11-24T04:46:29.593Z,100.00
2022-11-24T04:49:10.189Z,100.00
2022-11-24T04:51:39.405Z,100.00
2022-11-24T04:54:09.927Z,100.00
2022-11-24T04:56:44.683Z,100.00
2022-11-24T04:59:16.039Z,100.00
2022-11-24T05:01:48.285Z,100.00
2022-11-24T05:04:19.924Z,97.57
2022-11-24T05:06:49.488Z,98.21
2022-11-24T05:09:19.909Z,98.61
2022-11-24T05:11:54.315Z,98.99
2022-11-24T05:14:23.724Z,98.52
2022-11-24T05:16:59.881Z,99.22
2022-11-24T05:19:32.394Z,99.33
2022-11-24T05:22:03.091Z,99.41
2022-11-24T05:24:32.779Z,99.52
2022-11-24T05:27:02.326Z,99.23
2022-11-24T05:29:31.707Z,98.83
2022-11-24T05:32:02.808Z,99.03
2022-11-24T05:34:37.209Z,98.69
2022-11-24T05:37:06.432Z,97.74
2022-11-24T05:39:40.724Z,97.61
2022-11-24T05:42:23.640Z,97.89
2022-11-24T05:44:53.263Z,98.50
2022-11-24T05:47:24.393Z,98.41
2022-11-24T05:49:54.005Z,98.75
2022-11-24T05:52:23.216Z,98.91
2022-11-24T05:54:52.421Z,98.35
2022-11-24T05:57:21.746Z,98.08
2022-11-24T05:59:51.003Z,98.94
2022-11-24T06:02:20.284Z,98.93
2022-11-24T06:04:52.313Z,99.35
2022-11-24T06:07:26.727Z,98.12
2022-11-24T06:09:55.887Z,98.57
2022-11-24T06:12:25.209Z,97.30
2022-11-24T06:14:54.392Z,96.85
2022-11-24T06:17:24.146Z,96.49
2022-11-24T06:19:55.155Z,96.77
2022-11-24T06:22:24.277Z,96.48
2022-11-24T06:24:53.372Z,96.68
2022-11-24T06:27:22.699Z,97.54
2022-11-24T06:29:57.116Z,98.23
2022-11-24T06:32:26.302Z,98.00
2022-11-24T06:34:57.355Z,98.25
2022-11-24T06:37:26.724Z,97.92
2022-11-24T06:39:55.787Z,98.68
2022-11-24T06:45:00.339Z,97.93
2022-11-24T06:47:29.549Z,97.07
2022-11-24T06:52:40.640Z,97.81
2022-11-24T06:55:10.777Z,97.63
2022-11-24T06:57:41.205Z,96.96
2022-11-24T07:00:12.416Z,98.00
2022-11-24T07:02:46.882Z,96.87
2022-11-24T07:05:18.299Z,97.39
2022-11-24T07:07:47.555Z,98.27
2022-11-24T07:10:16.764Z,97.98
2022-11-24T07:12:45.973Z,97.72
2022-11-24T07:15:15.145Z,97.99
2022-11-24T07:17:44.470Z,97.99
2022-11-24T07:20:13.939Z,97.94
2022-11-24T07:22:45.141Z,98.59
2022-11-24T07:25:14.658Z,97.80
2022-11-24T07:27:43.892Z,97.55
2022-11-24T07:30:13.852Z,97.53
2022-11-24T07:32:42.949Z,97.93
2022-11-24T07:35:12.130Z,97.62
2022-11-24T07:37:41.509Z,97.79
2022-11-24T07:40:19.445Z,97.87
2022-11-24T07:42:48.616Z,97.37
2022-11-24T07:45:18.138Z,96.86
2022-11-24T07:47:47.268Z,96.52
2022-11-24T07:50:21.633Z,95.78
2022-11-24T07:52:50.847Z,95.86
2022-11-24T07:55:22.019Z,96.16
2022-11-24T07:57:51.228Z,96.49
2022-11-24T08:00:21.093Z,96.43
2022-11-24T08:02:50.788Z,96.01
2022-11-24T08:05:20.233Z,95.47
2022-11-24T08:07:49.626Z,97.08
2022-11-24T08:10:23.722Z,96.72
2022-11-24T08:12:53.205Z,96.34
2022-11-24T08:15:22.497Z,96.54
2022-11-24T08:17:51.792Z,96.36
2022-11-24T08:20:20.910Z,96.53
2022-11-24T08:22:50.493Z,96.70
2022-11-24T08:25:24.897Z,96.61
2022-11-24T08:27:54.745Z,96.28
2022-11-24T08:30:24.431Z,96.13
2022-11-24T08:32:55.558Z,96.15
2022-11-24T08:35:25.565Z,95.29
2022-11-24T08:37:54.752Z,95.17
2022-11-24T08:43:02.283Z,95.88
2022-11-24T08:45:39.748Z,95.85
2022-11-24T08:48:11.157Z,95.50
2022-11-24T08:50:40.264Z,95.35
2022-11-24T08:53:09.398Z,94.93
2022-11-24T08:55:40.487Z,94.65
2022-11-24T08:58:10.130Z,93.51
2022-11-24T09:00:39.326Z,94.51
2022-11-24T09:03:14.240Z,94.87
2022-11-24T09:05:51.613Z,93.93
2022-11-24T09:08:22.534Z,94.26
2022-11-24T09:10:54.324Z,92.55
2022-11-24T09:13:23.173Z,93.59
2022-11-24T09:15:52.364Z,93.32
2022-11-24T09:18:28.892Z,93.69
2022-11-24T09:21:08.745Z,92.39
2022-11-24T09:23:38.552Z,91.84
2022-11-24T09:26:12.126Z,92.43
2022-11-24T09:28:42.446Z,93.54
2022-11-24T09:31:15.918Z,94.14
2022-11-24T09:33:46.317Z,94.46
2022-11-24T09:36:16.158Z,93.59
2022-11-24T09:38:51.767Z,93.26
2022-11-24T09:41:42.288Z,93.05
2022-11-24T09:44:32.431Z,93.51
2022-11-24T09:47:11.885Z,92.92
2022-11-24T09:49:51.268Z,93.97
2022-11-24T09:52:30.343Z,93.94
2022-11-24T09:55:04.478Z,93.50
2022-11-24T09:57:38.237Z,94.75
2022-11-24T10:00:15.014Z,93.49
2022-11-24T10:02:44.734Z,93.76
2022-11-24T10:05:15.087Z,93.33
2022-11-24T10:08:04.884Z,93.15
2022-11-24T10:10:40.708Z,92.93
2022-11-24T10:13:24.169Z,93.40
2022-11-24T10:16:06.080Z,93.08
2022-11-24T10:18:50.468Z,93.09
2022-11-24T10:21:44.224Z,93.31
2022-11-24T10:24:36.686Z,93.12
2022-11-24T10:27:19.412Z,92.78
2022-11-24T10:29:54.644Z,92.65
2022-11-24T10:32:33.179Z,92.49
2022-11-24T10:35:14.818Z,93.05
2022-11-24T10:37:57.535Z,92.46
2022-11-24T10:43:29.266Z,93.74
2022-11-24T10:46:07.500Z,93.21
2022-11-24T10:48:43.050Z,93.27
2022-11-24T10:51:37.414Z,93.40
2022-11-24T10:54:21.260Z,93.95
2022-11-24T10:56:53.731Z,93.79
2022-11-24T10:59:37.993Z,93.98
2022-11-24T11:02:33.298Z,94.43
2022-11-24T11:05:46.442Z,94.85
2022-11-24T11:08:25.504Z,94.54
2022-11-24T11:11:15.722Z,96.13
2022-11-24T11:14:01.514Z,96.19
2022-11-24T11:16:42.809Z,96.40
2022-11-24T11:19:53.180Z,95.07
2022-11-24T11:22:32.544Z,95.48
2022-11-24T11:25:09.050Z,95.80
2022-11-24T11:27:42.682Z,95.01
2022-11-24T11:36:22.632Z,95.52
2022-11-24T11:38:52.589Z,95.60
2022-11-24T11:41:25.989Z,95.47
2022-11-24T11:44:04.892Z,94.48
2022-11-24T11:46:35.551Z,95.83
2022-11-24T11:49:05.060Z,95.26
2022-11-24T11:51:51.576Z,94.29
2022-11-24T11:54:32.460Z,93.83
2022-11-24T11:57:12.878Z,94.70
2022-11-24T12:00:00.865Z,94.36
2022-11-24T12:02:54.483Z,95.21
2022-11-24T12:05:33.354Z,94.70
2022-11-24T12:08:21.397Z,95.29
2022-11-24T12:11:00.494Z,94.79
2022-11-24T12:13:49.608Z,95.03
2022-11-24T12:16:30.411Z,94.80
2022-11-24T12:19:16.472Z,95.70
2022-11-24T12:21:54.956Z,95.48
2022-11-24T12:24:38.908Z,94.38
2022-11-24T12:27:26.640Z,94.86
2022-11-24T12:30:07.270Z,94.64
2022-11-24T12:33:15.222Z,94.04
2022-11-24T12:35:46.973Z,93.76
2022-11-24T12:38:26.873Z,93.85
2022-11-24T12:41:40.657Z,93.48
2022-11-24T12:47:15.829Z,94.04
2022-11-24T12:55:23.992Z,95.29
2022-11-24T12:58:03.998Z,95.31
2022-11-24T13:00:45.207Z,95.55
2022-11-24T13:03:27.492Z,95.00
2022-11-24T13:08:43.301Z,93.21
2022-11-24T13:11:36.331Z,93.27
2022-11-24T13:14:15.639Z,93.28
2022-11-24T13:19:50.404Z,92.88
2022-11-24T13:22:26.381Z,93.07
2022-11-24T13:25:15.340Z,92.45
2022-11-24T13:27:48.885Z,91.61
2022-11-24T13:30:50.382Z,91.77
2022-11-24T13:33:33.483Z,92.01
2022-11-24T13:36:32.385Z,92.42
2022-11-24T13:39:20.911Z,92.83
2022-11-24T13:42:04.401Z,92.66
2022-11-24T13:44:48.754Z,92.60
2022-11-24T13:47:41.326Z,92.63
2022-11-24T13:50:15.452Z,93.45
2022-11-24T13:52:49.145Z,93.28
2022-11-24T13:55:26.446Z,93.24
2022-11-24T13:57:59.206Z,92.78
2022-11-24T14:00:33.534Z,93.22
2022-11-24T14:03:05.981Z,92.82
2022-11-24T14:05:41.920Z,93.26
2022-11-24T14:08:21.917Z,93.00
2022-11-24T14:11:03.194Z,93.11
2022-11-24T14:13:38.578Z,92.92
2022-11-24T14:16:22.627Z,93.08
2022-11-24T14:18:53.253Z,93.02
2022-11-24T14:21:28.931Z,92.93
2022-11-24T14:24:00.774Z,93.32
2022-11-24T14:26:40.253Z,93.01
2022-11-24T14:29:16.643Z,92.71
2022-11-24T14:31:55.237Z,92.83
2022-11-24T14:34:26.985Z,93.14
2022-11-24T14:36:58.129Z,92.73
2022-11-24T14:39:29.818Z,93.42
2022-11-24T14:42:05.209Z,93.33
2022-11-24T14:44:45.445Z,93.58
2022-11-24T14:47:31.424Z,93.24
2022-11-24T14:50:12.215Z,93.18
2022-11-24T14:52:52.631Z,93.20
2022-11-24T14:55:29.974Z,93.04
2022-11-24T15:00:39.808Z,92.45
2022-11-24T15:03:19.630Z,91.67
2022-11-24T15:05:54.790Z,92.22
2022-11-24T15:08:31.019Z,92.18
2022-11-24T15:11:02.139Z,92.18
2022-11-24T15:13:36.720Z,92.09
2022-11-24T15:16:09.389Z,91.83
2022-11-24T15:18:49.354Z,91.39
2022-11-24T15:21:31.491Z,92.47
2022-11-24T15:24:08.806Z,92.40
2022-11-24T15:26:42.143Z,91.92
2022-11-24T15:29:12.271Z,92.38
2022-11-24T15:31:47.870Z,92.52
2022-11-24T15:34:22.406Z,92.79
2022-11-24T15:36:51.819Z,92.21
2022-11-24T15:39:20.991Z,92.35
2022-11-24T15:41:55.206Z,92.91
2022-11-24T15:44:24.569Z,92.98
2022-11-24T15:46:54.896Z,92.96
2022-11-24T15:49:26.238Z,92.85
2022-11-24T15:51:55.367Z,92.46
2022-11-24T15:54:25.321Z,93.01
2022-11-24T15:56:54.689Z,92.25
2022-11-24T15:59:23.846Z,92.50
2022-11-24T16:01:58.317Z,92.56
2022-11-24T16:04:29.770Z,93.10
2022-11-24T16:07:05.268Z,92.99
2022-11-24T16:09:34.644Z,92.55
2022-11-24T16:12:03.863Z,92.27
2022-11-24T16:17:13.605Z,93.83
2022-11-24T16:19:45.298Z,94.27
2022-11-24T16:22:19.627Z,93.12
2022-11-24T16:24:48.811Z,93.54
2022-11-24T16:27:18.003Z,93.33
2022-11-24T16:29:47.180Z,93.26
2022-11-24T16:32:22.422Z,93.22
2022-11-24T16:34:53.693Z,93.77
2022-11-24T16:37:23.596Z,93.12
2022-11-24T16:39:53.090Z,93.75
2022-11-24T16:42:27.511Z,93.54
2022-11-24T16:44:56.837Z,93.73
2022-11-24T16:47:26.125Z,93.59
2022-11-24T16:50:02.511Z,93.71
2022-11-24T16:52:32.554Z,93.96
2022-11-24T16:55:06.826Z,93.83
2022-11-24T16:57:37.049Z,94.00
2022-11-24T17:00:07.128Z,93.80
2022-11-24T17:02:36.421Z,93.60
2022-11-24T17:05:08.622Z,94.18
2022-11-24T17:07:37.912Z,95.38
2022-11-24T17:10:08.948Z,94.30
2022-11-24T17:12:40.637Z,94.24
2022-11-24T17:15:32.559Z,94.39
2022-11-24T17:18:24.119Z,94.37
2022-11-24T17:21:03.148Z,94.22
2022-11-24T17:23:35.788Z,94.50
2022-11-24T17:26:06.749Z,95.14
2022-11-24T17:28:36.499Z,94.31
2022-11-24T17:31:10.269Z,94.37
2022-11-24T17:33:39.796Z,94.25
2022-11-24T17:36:11.507Z,94.35
2022-11-24T17:38:48.961Z,94.96
2022-11-24T17:41:18.522Z,95.51
2022-11-24T17:43:50.932Z,95.84
2022-11-24T17:46:35.376Z,95.48
2022-11-24T17:49:12.725Z,95.39
2022-11-24T17:51:45.864Z,95.54
2022-11-24T17:54:45.517Z,95.39
2022-11-24T17:57:12.114Z,94.81
2022-11-24T17:59:41.396Z,95.10
2022-11-24T18:02:11.630Z,95.35
2022-11-24T18:04:41.048Z,94.55
2022-11-24T18:07:12.421Z,94.59
2022-11-24T18:09:42.167Z,94.65
2022-11-24T18:12:11.294Z,94.42
2022-11-24T18:14:45.615Z,94.35
2022-11-24T18:17:23.637Z,93.84
2022-11-24T18:19:53.074Z,93.83
2022-11-24T18:22:50.108Z,93.67
2022-11-24T18:25:13.707Z,93.43
2022-11-24T18:27:42.939Z,92.79
2022-11-24T18:30:12.600Z,92.67
2022-11-24T18:32:42.294Z,91.59
2022-11-24T18:35:11.930Z,91.34
2022-11-24T18:37:44.124Z,91.70
2022-11-24T18:40:13.957Z,91.52
2022-11-24T18:42:43.257Z,91.62
2022-11-24T18:45:13.318Z,91.31
2022-11-24T18:47:42.495Z,90.64
2022-11-24T18:50:12.809Z,91.51
2022-11-24T18:52:54.606Z,91.42
2022-11-24T18:55:23.800Z,90.96
2022-11-24T18:57:53.018Z,91.24
2022-11-24T19:00:25.167Z,91.66
2022-11-24T19:02:59.464Z,92.21
2022-11-24T19:05:36.438Z,91.57
2022-11-24T19:08:07.842Z,91.60
2022-11-24T19:10:44.925Z,91.36
2022-11-24T19:13:15.793Z,91.32
2022-11-24T19:15:45.113Z,90.55
2022-11-24T19:18:21.255Z,90.84
2022-11-24T19:20:50.542Z,91.54
2022-11-24T19:23:21.938Z,92.01
2022-11-24T19:25:51.340Z,92.24
2022-11-24T19:28:20.647Z,92.30
2022-11-24T19:30:49.979Z,92.42
2022-11-24T19:33:21.145Z,92.15
2022-11-24T19:36:02.680Z,91.63
2022-11-24T19:38:35.632Z,91.70
2022-11-24T19:41:07.078Z,91.16
2022-11-24T19:43:36.813Z,91.50
2022-11-24T19:46:09.032Z,89.80
2022-11-24T19:48:43.015Z,89.79
2022-11-24T19:51:14.531Z,89.87
2022-11-24T19:53:46.403Z,89.88
2022-11-24T19:56:16.996Z,89.80
2022-11-24T19:58:46.454Z,90.13
2022-11-24T20:01:17.387Z,89.84
2022-11-24T20:03:53.277Z,90.27
2022-11-24T20:06:22.626Z,89.76
2022-11-24T20:08:54.100Z,89.30
2022-11-24T20:11:30.154Z,89.47
2022-11-24T20:14:05.273Z,89.90
2022-11-24T20:16:36.434Z,88.49
2022-11-24T20:19:13.084Z,87.49
2022-11-24T20:21:45.741Z,87.69
2022-11-24T20:24:29.301Z,88.16
2022-11-24T20:27:00.019Z,87.87
2022-11-24T20:29:36.831Z,87.71
2022-11-24T20:32:06.067Z,88.05
2022-11-24T20:34:36.926Z,87.82
2022-11-24T20:37:13.093Z,87.73
2022-11-24T20:39:44.347Z,87.93
2022-11-24T20:42:13.758Z,87.99
2022-11-24T20:44:42.875Z,88.55
2022-11-24T20:47:17.197Z,88.88
2022-11-24T20:49:49.067Z,89.15
2022-11-24T20:52:18.298Z,89.46
2022-11-24T20:54:49.373Z,89.65
2022-11-24T20:57:24.010Z,90.00
2022-11-24T20:59:53.150Z,89.80
2022-11-24T21:02:22.427Z,90.12
2022-11-24T21:04:51.638Z,89.87
2022-11-24T21:07:20.791Z,89.47
2022-11-24T21:09:52.091Z,89.84
2022-11-24T21:12:21.443Z,90.55
2022-11-24T21:14:52.573Z,92.15
2022-11-24T21:17:26.964Z,93.94
2022-11-24T21:20:00.837Z,93.88
2022-11-24T21:22:35.096Z,93.96
2022-11-24T21:25:06.806Z,95.58
2022-11-24T21:27:36.018Z,96.05
2022-11-24T21:30:06.512Z,96.11
2022-11-24T21:32:35.886Z,95.81
2022-11-24T21:35:05.327Z,95.84
2022-11-24T21:37:34.509Z,95.62
2022-11-24T21:40:06.067Z,95.52
2022-11-24T21:42:35.161Z,95.36
2022-11-24T21:45:04.317Z,95.18
2022-11-24T21:47:33.596Z,94.56
2022-11-24T21:50:03.456Z,94.02
2022-11-24T21:52:32.847Z,93.51
2022-11-24T21:57:44.713Z,93.41
2022-11-24T22:00:17.948Z,93.44
2022-11-24T22:02:47.585Z,93.04
2022-11-24T22:05:29.142Z,93.09
2022-11-24T22:07:58.470Z,93.54
2022-11-24T22:10:27.592Z,94.21
2022-11-24T22:15:44.163Z,94.31
2022-11-24T22:18:15.272Z,94.86
2022-11-24T22:20:44.576Z,94.48
2022-11-24T22:23:14.718Z,94.43
2022-11-24T22:25:43.905Z,94.02
2022-11-24T22:28:20.460Z,94.58
2022-11-24T22:30:50.045Z,94.43
2022-11-24T22:33:19.223Z,95.35
2022-11-24T22:35:58.162Z,95.18
2022-11-24T22:38:28.422Z,95.12
2022-11-24T22:43:45.349Z,95.75
2022-11-24T22:48:57.218Z,96.41
2022-11-24T22:51:30.871Z,96.77
2022-11-24T22:56:47.346Z,95.71
2022-11-24T22:59:18.571Z,95.52
2022-11-24T23:01:47.796Z,94.92
2022-11-24T23:04:17.110Z,95.24
2022-11-24T23:06:51.892Z,94.68
2022-11-24T23:09:21.029Z,94.88
2022-11-24T23:11:50.205Z,95.17
2022-11-24T23:14:21.473Z,95.10
2022-11-24T23:16:50.969Z,94.47
2022-11-24T23:19:20.068Z,93.92
2022-11-24T23:21:49.319Z,94.02
2022-11-24T23:24:18.598Z,93.89
2022-11-24T23:26:47.747Z,94.06
2022-11-24T23:29:16.923Z,94.07
2022-11-24T23:31:48.046Z,93.60
2022-11-24T23:34:17.232Z,92.74
2022-11-24T23:36:46.385Z,93.00
2022-11-24T23:39:16.031Z,92.84
2022-11-24T23:41:45.176Z,92.75
2022-11-24T23:44:14.920Z,92.74
2022-11-24T23:46:51.348Z,92.51
2022-11-24T23:49:20.650Z,92.17
2022-11-24T23:51:49.896Z,92.30
2022-11-24T23:54:19.208Z,92.86
2022-11-24T23:56:48.514Z,92.77
2022-11-24T23:59:22.800Z,92.60
